Ben-my-chree — MXLG6 — position and weather

sailwx.info

Track history (hours):
 
Tides and Currents Weather Stations Pressure Air Temp Water Temp Dewpoint Dewpoint Depression Visibility Wind Speed Wind Dir Waves Ship Positions

Ben-my-chree

Operator: The Isle of Man Steam Packet Co Ltd

Last reported at 2017-Mar-24 11:34 UTC. Time now 2017-Mar-24 12:21 UTC.
Position N 53°56' W 003°13'.

Length 120 m; draft 5 m.

Type: Passenger vessel. MMSI: 234983000.

Date/timePositionNaut miles runAvg speedWind from/ knotsBaromVisibWave heightAir tempDewpointWater temp
2017-Mar-24 11:34N 53°56' W 003°13'1615.5
2017-Mar-24 10:30N 53°58' W 003°41'2416.9
2017-Mar-24 09:05N 54°07' W 004°19'5 1.3
2017-Mar-24 05:32N 54°09' W 004°26'2017.3
2017-Mar-24 04:22N 54°01' W 003°54'1517.6
2017-Mar-24 03:31N 53°56' W 003°30'1718.0
2017-Mar-24 02:33N 53°59' W 003°01'5 1.6
2017-Mar-23 23:33N 54°02' W 002°55'1414.5
2017-Mar-23 22:33N 53°55' W 003°17'1615.7
2017-Mar-23 21:33N 53°59' W 003°43'25 6.2
2017-Mar-23 17:28N 54°08' W 004°23'1917.2
2017-Mar-23 16:23N 54°01' W 003°54'1617.6
2017-Mar-23 15:29N 53°55' W 003°29'10 2.6
2017-Mar-23 11:33N 53°55' W 003°12'1615.5
2017-Mar-23 10:33N 53°58' W 003°38'31 6.2
2017-Mar-23 05:31N 54°09' W 004°27'2217.1
2017-Mar-23 04:15N 54°01' W 003°53'1517.4
2017-Mar-23 03:24N 53°56' W 003°30'1517.5
2017-Mar-23 02:33N 53°57' W 003°05'7 2.3
2017-Mar-22 23:28N 54°02' W 002°55'1415.3
2017-Mar-22 22:33N 53°55' W 003°16'43 8.7
2017-Mar-22 17:33N 54°09' W 004°26'2017.4
2017-Mar-22 16:25N 54°02' W 003°55'1617.7
2017-Mar-22 15:29N 53°56' W 003°29'21 6.7
2017-Mar-22 12:21N 54°02' W 002°55'1215.5
2017-Mar-22 11:34N 53°55' W 003°13'1715.8
2017-Mar-22 10:30N 53°59' W 003°41'29 5.8
2017-Mar-22 05:27N 54°09' W 004°27'1617.6
2017-Mar-22 04:33N 54°03' W 004°02'2117.8
2017-Mar-22 03:21N 53°56' W 003°28'1417.3
2017-Mar-22 02:33N 53°57' W 003°05'7 2.2
2017-Mar-21 23:19N 54°02' W 002°55'1215.3
2017-Mar-21 22:33N 53°55' W 003°12'1716.2
2017-Mar-21 21:32N 53°58' W 003°40'24 5.7
2017-Mar-21 17:23N 54°07' W 004°17'3116.5
2017-Mar-21 15:31N 53°56' W 003°29'20 6.1
2017-Mar-21 12:12N 54°02' W 002°56'1015.8
2017-Mar-21 11:33N 53°56' W 003°09'1716.6
2017-Mar-21 10:33N 53°58' W 003°38'20 3.7
2017-Mar-21 05:12N 54°05' W 004°09'2514.9
2017-Mar-21 03:31N 53°56' W 003°29'1414.7
2017-Mar-21 02:33N 53°57' W 003°05'3 0.8
2017-Mar-20 22:31N 53°59' W 003°00'1616.8
2017-Mar-20 21:33N 53°56' W 003°27'25 5.6
2017-Mar-20 17:04N 54°06' W 004°07'2516.6
2017-Mar-20 15:32N 53°56' W 003°27'13 3.2
2017-Mar-20 11:32N 53°57' W 003°06'1717.2
2017-Mar-20 10:33N 53°57' W 003°34'20 3.7
2017-Mar-20 05:11N 54°04' W 004°06'3117.0
2017-Mar-20 03:21N 53°56' W 003°15'6 1.7
2017-Mar-19 23:33N 53°57' W 003°04'1817.4
2017-Mar-19 22:33N 53°57' W 003°34'31 7.1
2017-Mar-19 18:08N 54°09' W 004°24'1017.3
2017-Mar-19 17:32N 54°01' W 004°11'1817.7
2017-Mar-19 16:33N 53°49' W 003°50'1716.9
2017-Mar-19 15:33N 53°37' W 003°29'1515.5
2017-Mar-19 14:33N 53°30' W 003°06'7 7.0
2017-Mar-19 13:32N 53°24' W 003°01'0 0.0
2017-Mar-19 12:32N 53°24' W 003°01'6 6.6
2017-Mar-19 11:33N 53°30' W 003°05'1716.8
2017-Mar-19 10:33N 53°38' W 003°30'1817.7
2017-Mar-19 09:33N 53°50' W 003°52'25 6.1
2017-Mar-19 05:27N 54°08' W 004°21'1617.0
2017-Mar-19 04:29N 54°02' W 003°55'3015.7
2017-Mar-19 02:33N 53°58' W 003°04'7 2.0
2017-Mar-18 23:15N 54°02' W 002°55'1217.5
2017-Mar-18 22:33N 53°56' W 003°13'40 9.3
2017-Mar-18 18:16N 54°05' W 004°19'3118.0
2017-Mar-18 16:33N 53°44' W 003°41'1817.9
2017-Mar-18 15:33N 53°32' W 003°18'1212.5
2017-Mar-18 14:33N 53°25' W 003°01'1 1.2
2017-Mar-18 13:33N 53°24' W 003°01'0 0.0
2017-Mar-18 12:33N 53°24' W 003°01'7 7.2
2017-Mar-18 11:33N 53°30' W 003°06'1716.7
2017-Mar-18 10:34N 53°38' W 003°31'42 1.4
2017-Mar-17 05:33N 54°07' W 004°21'3316.2
2017-Mar-17 03:32N 53°56' W 003°29'21 4.6
2017-Mar-16 23:04N 54°02' W 002°55'1018.2
2017-Mar-16 22:32N 53°56' W 003°08'1818.8
2017-Mar-16 21:33N 53°57' W 003°40'26 6.0
2017-Mar-16 17:19N 54°07' W 004°19'3217.7
2017-Mar-16 15:30N 53°55' W 003°29'1717.6
2017-Mar-16 14:33N 53°59' W 003°01'1 0.5
2017-Mar-16 11:31N 53°58' W 003°03'1818.7
2017-Mar-16 10:33N 53°56' W 003°34'34 6.5
2017-Mar-16 05:21N 54°09' W 004°27'1517.7
2017-Mar-16 04:30N 54°03' W 004°04'2118.5
2017-Mar-16 03:21N 53°56' W 003°30'1518.2
2017-Mar-16 02:32N 53°57' W 003°05'2 0.4
2017-Mar-15 22:31N 53°58' W 003°02'1818.8
2017-Mar-15 21:33N 53°56' W 003°33'2018.5
2017-Mar-15 20:29N 54°03' W 004°04'15 5.1
2017-Mar-15 17:32N 54°09' W 004°28'1615.0
2017-Mar-15 16:30N 54°03' W 004°03'2218.7
2017-Mar-15 15:18N 53°56' W 003°28'14 3.6
2017-Mar-15 11:27N 53°57' W 003°05'1718.9
2017-Mar-15 10:33N 53°57' W 003°33'31 5.8
2017-Mar-15 05:06N 54°08' W 004°23'3018.2
2017-Mar-15 03:26N 53°56' W 003°36'1719.0
2017-Mar-15 02:33N 53°57' W 003°07'6 1.5
2017-Mar-14 22:33N 54°00' W 002°59'1919.1
2017-Mar-14 21:33N 53°56' W 003°31'36 8.5
2017-Mar-14 17:22N 54°09' W 004°27'2217.9
2017-Mar-14 16:09N 54°01' W 003°53'1417.9
2017-Mar-14 15:23N 53°56' W 003°31'1518.2
2017-Mar-14 14:33N 53°57' W 003°05'  
Track history (hours):
 
Tides and Currents Weather Stations Pressure Air Temp Water Temp Dewpoint Dewpoint Depression Visibility Wind Speed Wind Dir Waves Ship Positions

Ben-my-chree

Operator: The Isle of Man Steam Packet Co Ltd

Last reported at 2017-Mar-24 11:34 UTC. Time now 2017-Mar-24 12:21 UTC.
Position N 53°56' W 003°13'.

Length 120 m; draft 5 m.

Type: Passenger vessel. MMSI: 234983000.

Date/timePositionNaut miles runAvg speedWind from/ knotsBaromVisibWave heightAir tempDewpointWater temp
2017-Mar-24 11:34N 53°56' W 003°13'1615.5
2017-Mar-24 10:30N 53°58' W 003°41'2416.9
2017-Mar-24 09:05N 54°07' W 004°19'5 1.3
2017-Mar-24 05:32N 54°09' W 004°26'2017.3
2017-Mar-24 04:22N 54°01' W 003°54'1517.6
2017-Mar-24 03:31N 53°56' W 003°30'1718.0
2017-Mar-24 02:33N 53°59' W 003°01'5 1.6
2017-Mar-23 23:33N 54°02' W 002°55'1414.5
2017-Mar-23 22:33N 53°55' W 003°17'1615.7
2017-Mar-23 21:33N 53°59' W 003°43'25 6.2
2017-Mar-23 17:28N 54°08' W 004°23'1917.2
2017-Mar-23 16:23N 54°01' W 003°54'1617.6
2017-Mar-23 15:29N 53°55' W 003°29'10 2.6
2017-Mar-23 11:33N 53°55' W 003°12'1615.5
2017-Mar-23 10:33N 53°58' W 003°38'31 6.2
2017-Mar-23 05:31N 54°09' W 004°27'2217.1
2017-Mar-23 04:15N 54°01' W 003°53'1517.4
2017-Mar-23 03:24N 53°56' W 003°30'1517.5
2017-Mar-23 02:33N 53°57' W 003°05'7 2.3
2017-Mar-22 23:28N 54°02' W 002°55'1415.3
2017-Mar-22 22:33N 53°55' W 003°16'43 8.7
2017-Mar-22 17:33N 54°09' W 004°26'2017.4
2017-Mar-22 16:25N 54°02' W 003°55'1617.7
2017-Mar-22 15:29N 53°56' W 003°29'21 6.7
2017-Mar-22 12:21N 54°02' W 002°55'1215.5
2017-Mar-22 11:34N 53°55' W 003°13'1715.8
2017-Mar-22 10:30N 53°59' W 003°41'29 5.8
2017-Mar-22 05:27N 54°09' W 004°27'1617.6
2017-Mar-22 04:33N 54°03' W 004°02'2117.8
2017-Mar-22 03:21N 53°56' W 003°28'1417.3
2017-Mar-22 02:33N 53°57' W 003°05'7 2.2
2017-Mar-21 23:19N 54°02' W 002°55'1215.3
2017-Mar-21 22:33N 53°55' W 003°12'1716.2
2017-Mar-21 21:32N 53°58' W 003°40'24 5.7
2017-Mar-21 17:23N 54°07' W 004°17'3116.5
2017-Mar-21 15:31N 53°56' W 003°29'20 6.1
2017-Mar-21 12:12N 54°02' W 002°56'1015.8
2017-Mar-21 11:33N 53°56' W 003°09'1716.6
2017-Mar-21 10:33N 53°58' W 003°38'20 3.7
2017-Mar-21 05:12N 54°05' W 004°09'2514.9
2017-Mar-21 03:31N 53°56' W 003°29'1414.7
2017-Mar-21 02:33N 53°57' W 003°05'3 0.8
2017-Mar-20 22:31N 53°59' W 003°00'1616.8
2017-Mar-20 21:33N 53°56' W 003°27'25 5.6
2017-Mar-20 17:04N 54°06' W 004°07'2516.6
2017-Mar-20 15:32N 53°56' W 003°27'13 3.2
2017-Mar-20 11:32N 53°57' W 003°06'1717.2
2017-Mar-20 10:33N 53°57' W 003°34'20 3.7
2017-Mar-20 05:11N 54°04' W 004°06'3117.0
2017-Mar-20 03:21N 53°56' W 003°15'6 1.7
2017-Mar-19 23:33N 53°57' W 003°04'1817.4
2017-Mar-19 22:33N 53°57' W 003°34'31 7.1
2017-Mar-19 18:08N 54°09' W 004°24'1017.3
2017-Mar-19 17:32N 54°01' W 004°11'1817.7
2017-Mar-19 16:33N 53°49' W 003°50'1716.9
2017-Mar-19 15:33N 53°37' W 003°29'1515.5
2017-Mar-19 14:33N 53°30' W 003°06'7 7.0
2017-Mar-19 13:32N 53°24' W 003°01'0 0.0
2017-Mar-19 12:32N 53°24' W 003°01'6 6.6
2017-Mar-19 11:33N 53°30' W 003°05'1716.8
2017-Mar-19 10:33N 53°38' W 003°30'1817.7
2017-Mar-19 09:33N 53°50' W 003°52'25 6.1
2017-Mar-19 05:27N 54°08' W 004°21'1617.0
2017-Mar-19 04:29N 54°02' W 003°55'3015.7
2017-Mar-19 02:33N 53°58' W 003°04'7 2.0
2017-Mar-18 23:15N 54°02' W 002°55'1217.5
2017-Mar-18 22:33N 53°56' W 003°13'40 9.3
2017-Mar-18 18:16N 54°05' W 004°19'3118.0
2017-Mar-18 16:33N 53°44' W 003°41'1817.9
2017-Mar-18 15:33N 53°32' W 003°18'1212.5
2017-Mar-18 14:33N 53°25' W 003°01'1 1.2
2017-Mar-18 13:33N 53°24' W 003°01'0 0.0
2017-Mar-18 12:33N 53°24' W 003°01'7 7.2
2017-Mar-18 11:33N 53°30' W 003°06'1716.7
2017-Mar-18 10:34N 53°38' W 003°31'42 1.4
2017-Mar-17 05:33N 54°07' W 004°21'3316.2
2017-Mar-17 03:32N 53°56' W 003°29'21 4.6
2017-Mar-16 23:04N 54°02' W 002°55'1018.2
2017-Mar-16 22:32N 53°56' W 003°08'1818.8
2017-Mar-16 21:33N 53°57' W 003°40'26 6.0
2017-Mar-16 17:19N 54°07' W 004°19'3217.7
2017-Mar-16 15:30N 53°55' W 003°29'1717.6
2017-Mar-16 14:33N 53°59' W 003°01'1 0.5
2017-Mar-16 11:31N 53°58' W 003°03'1818.7
2017-Mar-16 10:33N 53°56' W 003°34'34 6.5
2017-Mar-16 05:21N 54°09' W 004°27'1517.7
2017-Mar-16 04:30N 54°03' W 004°04'2118.5
2017-Mar-16 03:21N 53°56' W 003°30'1518.2
2017-Mar-16 02:32N 53°57' W 003°05'2 0.4
2017-Mar-15 22:31N 53°58' W 003°02'1818.8
2017-Mar-15 21:33N 53°56' W 003°33'2018.5
2017-Mar-15 20:29N 54°03' W 004°04'15 5.1
2017-Mar-15 17:32N 54°09' W 004°28'1615.0
2017-Mar-15 16:30N 54°03' W 004°03'2218.7
2017-Mar-15 15:18N 53°56' W 003°28'14 3.6
2017-Mar-15 11:27N 53°57' W 003°05'1718.9
2017-Mar-15 10:33N 53°57' W 003°33'31 5.8
2017-Mar-15 05:06N 54°08' W 004°23'3018.2
2017-Mar-15 03:26N 53°56' W 003°36'1719.0
2017-Mar-15 02:33N 53°57' W 003°07'6 1.5
2017-Mar-14 22:33N 54°00' W 002°59'1919.1
2017-Mar-14 21:33N 53°56' W 003°31'36 8.5
2017-Mar-14 17:22N 54°09' W 004°27'2217.9
2017-Mar-14 16:09N 54°01' W 003°53'1417.9
2017-Mar-14 15:23N 53°56' W 003°31'1518.2
2017-Mar-14 14:33N 53°57' W 003°05'  

Dump ship's entire track history